Terminal Aerodrome Forecast
Issued by NWS

Home | Current Version | Previous Version | Text Only | Print | Product List | Glossary On
Versions: 1 2 3 4 5 6 7 8 9 10 11 12 13 14
000
FTPA31 PHFO 310004 AAA
TAFHMK
TAF AMD
PHMK 310004Z 3100/3124 36012G18KT P6SM FEW020 SCT050
      TEMPO 3100/3102 4SM -SHRA SCT015 BKN045
     FM310600 04006KT P6SM FEW020 SCT050
     FM312100 04012G18KT P6SM SCT020 BKN050=

USA.gov is the U.S. government's official web portal to all federal, state and local government web resources and services.